Time;durP1;ratioP1;P1;durP2;ratioP2;P2;SDS_P1;SDS_P2;PMS_P1;PMS_P2;Temp;Humidity;BMP_temperature;BMP_pressure;BME280_temperature;BME280_humidity;BME280_pressure;Samples;Min_cycle;Max_cycle;Signal;HPM_P1;HPM_P2
2022/09/04 00:00:18;;;;;;;5.32;2.22;;;;;;;;;;5003652;28;20092;-91
2022/09/04 00:03:14;;;;;;;4.47;2.20;;;;;;;;;;5019191;28;20442;-91
2022/09/04 00:05:52;;;;;;;4.43;2.25;;;;;;;;;;5018397;28;20063;-90
2022/09/04 00:08:39;;;;;;;5.40;2.00;;;;;;;;;;5018131;28;20120;-91
2022/09/04 00:11:06;;;;;;;3.25;1.60;;;;;;;;;;5003694;28;20503;-91
2022/09/04 00:13:47;;;;;;;2.83;1.33;;;;;;;;;;5018453;28;20048;-90
2022/09/04 00:16:18;;;;;;;3.92;1.58;;;;;;;;;;5002416;28;20041;-90
2022/09/04 00:19:13;;;;;;;3.03;1.45;;;;;;;;;;5017870;28;20041;-90
2022/09/04 00:22:20;;;;;;;2.85;1.33;;;;;;;;;;5003226;28;20426;-90
2022/09/04 00:25:10;;;;;;;2.70;1.30;;;;;;;;;;4995637;28;20575;-91
2022/09/04 00:27:44;;;;;;;2.90;1.50;;;;;;;;;;4986412;28;20041;-91
2022/09/04 00:30:16;;;;;;;2.53;1.13;;;;;;;;;;5002182;28;20034;-91
2022/09/04 00:33:01;;;;;;;;;;;;;;;;;;5001954;28;20057;-91
2022/09/04 00:35:53;;;;;;;1.92;0.90;;;;;;;;;;5017446;28;19971;-91
2022/09/04 00:39:01;;;;;;;1.80;0.80;;;;;;;;;;5014918;28;20064;-90
2022/09/04 00:41:34;;;;;;;2.00;0.90;;;;;;;;;;5003001;28;20052;-90
2022/09/04 00:44:37;;;;;;;3.65;1.08;;;;;;;;;;5006645;28;20033;-90
2022/09/04 00:47:16;;;;;;;2.35;0.77;;;;;;;;;;5033920;28;20129;-90
2022/09/04 00:50:14;;;;;;;2.15;1.00;;;;;;;;;;5001251;28;20041;-91
2022/09/04 00:53:18;;;;;;;2.22;0.75;;;;;;;;;;5000988;28;20053;-91
2022/09/04 00:55:59;;;;;;;1.75;0.90;;;;;;;;;;5001041;28;20034;-90
2022/09/04 00:58:53;;;;;;;1.45;0.70;;;;;;;;;;5017399;28;20076;-90
2022/09/04 01:01:28;;;;;;;2.17;0.98;;;;;;;;;;5000645;28;20037;-90
2022/09/04 01:04:31;;;;;;;2.95;0.80;;;;;;;;;;5000611;28;20466;-90
2022/09/04 01:07:38;;;;;;;1.40;0.77;;;;;;;;;;5033747;28;20034;-90
2022/09/04 01:10:27;;;;;;;2.38;0.70;;;;;;;;;;4994666;28;20048;-90
2022/09/04 01:13:22;;;;;;;1.92;0.70;;;;;;;;;;5016698;28;20034;-90
2022/09/04 01:16:04;;;;;;;1.98;0.63;;;;;;;;;;5000690;28;20033;-90
2022/09/04 01:18:59;;;;;;;2.13;0.60;;;;;;;;;;5001183;28;20034;-90
2022/09/04 01:21:44;;;;;;;1.38;0.63;;;;;;;;;;4998905;28;20044;-90
2022/09/04 01:24:51;;;;;;;0.95;0.50;;;;;;;;;;5000025;28;20033;-91
2022/09/04 01:27:28;;;;;;;1.45;0.60;;;;;;;;;;5014426;28;20046;-90
2022/09/04 01:30:30;;;;;;;2.30;0.85;;;;;;;;;;5000521;28;20408;-89
2022/09/04 01:33:05;;;;;;;3.08;0.70;;;;;;;;;;5014004;28;20442;-90
2022/09/04 01:35:51;;;;;;;1.08;0.50;;;;;;;;;;5000534;28;20563;-89
2022/09/04 01:38:29;;;;;;;2.05;0.70;;;;;;;;;;5000001;28;20038;-90
2022/09/04 01:41:26;;;;;;;0.90;0.50;;;;;;;;;;5003000;28;20470;-90
2022/09/04 01:43:53;;;;;;;1.20;0.60;;;;;;;;;;5019479;28;20040;-90
2022/09/04 01:46:37;;;;;;;1.50;0.93;;;;;;;;;;4986828;28;20438;-90
2022/09/04 01:49:07;;;;;;;2.28;0.60;;;;;;;;;;5036066;28;20060;-91
2022/09/04 01:51:51;;;;;;;2.20;0.50;;;;;;;;;;5035626;28;20431;-90
2022/09/04 01:54:36;;;;;;;1.75;0.50;;;;;;;;;;5035926;28;20040;-91
2022/09/04 01:57:15;;;;;;;1.60;0.82;;;;;;;;;;5035879;28;20388;-90
2022/09/04 02:00:08;;;;;;;0.93;0.52;;;;;;;;;;5035989;28;20399;-90
2022/09/04 02:02:59;;;;;;;0.75;0.43;;;;;;;;;;5005673;28;20025;-91
2022/09/04 02:05:50;;;;;;;1.55;0.60;;;;;;;;;;5035886;28;20426;-91
2022/09/04 02:08:37;;;;;;;1.80;0.60;;;;;;;;;;5019678;28;20033;-90
2022/09/04 02:11:27;;;;;;;1.90;0.70;;;;;;;;;;5019167;28;20502;-90
2022/09/04 02:14:09;;;;;;;2.17;0.80;;;;;;;;;;5019167;28;20503;-90
2022/09/04 02:17:02;;;;;;;2.35;0.52;;;;;;;;;;5020095;28;20403;-90
2022/09/04 02:19:59;;;;;;;1.58;0.52;;;;;;;;;;5035095;28;20033;-91
2022/09/04 02:22:40;;;;;;;1.23;0.55;;;;;;;;;;5035261;28;20503;-90
2022/09/04 02:25:32;;;;;;;1.48;0.63;;;;;;;;;;5020685;28;20090;-90
2022/09/04 02:28:13;;;;;;;1.52;0.70;;;;;;;;;;5019073;28;20093;-91
2022/09/04 02:31:23;;;;;;;3.00;1.03;;;;;;;;;;5035524;28;20419;-91
2022/09/04 02:33:57;;;;;;;1.23;0.40;;;;;;;;;;5009009;28;20037;-91
2022/09/04 02:36:32;;;;;;;1.00;0.70;;;;;;;;;;5035970;28;20510;-89
2022/09/04 02:39:16;;;;;;;1.33;0.70;;;;;;;;;;5034954;28;20410;-90
2022/09/04 02:41:52;;;;;;;1.60;0.70;;;;;;;;;;4987922;28;20494;-90
2022/09/04 02:44:43;;;;;;;1.77;0.70;;;;;;;;;;5035330;28;20411;-90
2022/09/04 02:47:15;;;;;;;1.20;0.60;;;;;;;;;;5035079;28;20045;-90
2022/09/04 02:49:55;;;;;;;1.40;0.57;;;;;;;;;;5018038;28;20068;-91
2022/09/04 02:52:53;;;;;;;1.15;0.57;;;;;;;;;;5019484;28;20037;-91
2022/09/04 02:55:50;;;;;;;1.65;0.52;;;;;;;;;;5017962;28;20052;-90
2022/09/04 02:58:53;;;;;;;1.35;0.40;;;;;;;;;;5034952;28;20044;-91
2022/09/04 03:01:28;;;;;;;;;;;;;;;;;;5014441;28;20049;-91
2022/09/04 03:04:13;;;;;;;1.13;0.60;;;;;;;;;;4997889;28;20012;-91
2022/09/04 03:07:13;;;;;;;2.65;0.98;;;;;;;;;;5018376;28;20128;-91
2022/09/04 03:09:46;;;;;;;1.02;0.45;;;;;;;;;;5013355;28;20518;-91
2022/09/04 03:12:38;;;;;;;2.28;0.65;;;;;;;;;;5018357;28;20087;-90
2022/09/04 03:15:17;;;;;;;1.40;0.40;;;;;;;;;;5034909;28;20091;-90
2022/09/04 03:18:02;;;;;;;0.95;0.40;;;;;;;;;;5019535;28;20037;-90
2022/09/04 03:20:30;;;;;;;1.63;0.60;;;;;;;;;;5034326;28;20469;-90
2022/09/04 03:23:19;;;;;;;1.10;0.68;;;;;;;;;;5002235;28;20033;-90
2022/09/04 03:26:00;;;;;;;1.25;0.60;;;;;;;;;;5002171;28;20035;-90
2022/09/04 03:28:46;;;;;;;1.70;0.80;;;;;;;;;;5035094;28;20453;-91
2022/09/04 03:31:25;;;;;;;1.40;0.40;;;;;;;;;;5034876;28;20509;-90
2022/09/04 03:33:59;;;;;;;1.50;0.52;;;;;;;;;;5002225;28;20045;-91
2022/09/04 03:36:47;;;;;;;1.05;0.50;;;;;;;;;;5001778;28;20040;-91
2022/09/04 03:39:22;;;;;;;1.52;0.65;;;;;;;;;;5018680;28;20411;-90
2022/09/04 03:42:04;;;;;;;2.13;0.50;;;;;;;;;;4987013;28;20044;-90
2022/09/04 03:44:42;;;;;;;2.38;0.50;;;;;;;;;;5019771;28;20047;-90
2022/09/04 03:47:34;;;;;;;0.98;0.40;;;;;;;;;;5018157;28;20072;-90
2022/09/04 03:50:38;;;;;;;1.65;0.45;;;;;;;;;;5003858;28;20095;-90
2022/09/04 03:53:26;;;;;;;2.83;1.20;;;;;;;;;;4975197;28;20059;-90
2022/09/04 03:56:11;;;;;;;1.42;0.55;;;;;;;;;;5003867;28;20406;-91
2022/09/04 03:58:53;;;;;;;0.88;0.40;;;;;;;;;;5019531;28;20044;-90
2022/09/04 04:01:37;;;;;;;1.30;0.60;;;;;;;;;;5020789;28;20041;-91
2022/09/04 04:04:14;;;;;;;1.40;0.70;;;;;;;;;;5005257;28;20052;-90
2022/09/04 04:07:06;;;;;;;0.90;0.50;;;;;;;;;;5020848;28;20087;-89
2022/09/04 04:10:01;;;;;;;1.30;0.57;;;;;;;;;;5005539;28;20060;-89
2022/09/04 04:12:45;;;;;;;2.00;0.80;;;;;;;;;;5023938;28;20048;-89
2022/09/04 04:15:23;;;;;;;2.38;0.63;;;;;;;;;;5021683;28;20403;-89
2022/09/04 04:18:12;;;;;;;1.48;0.40;;;;;;;;;;5021198;28;20045;-90
2022/09/04 04:21:04;;;;;;;2.60;0.90;;;;;;;;;;5020570;28;20084;-89
2022/09/04 04:23:46;;;;;;;1.88;0.80;;;;;;;;;;5004414;28;20041;-89
2022/09/04 04:26:27;;;;;;;2.05;0.70;;;;;;;;;;5021555;28;20033;-90
2022/09/04 04:29:12;;;;;;;1.80;0.52;;;;;;;;;;5004428;28;20061;-90
2022/09/04 04:31:45;;;;;;;1.80;0.70;;;;;;;;;;4989970;28;20044;-90
2022/09/04 04:34:18;;;;;;;2.65;0.80;;;;;;;;;;5020689;28;20511;-90
2022/09/04 04:36:58;;;;;;;1.10;0.47;;;;;;;;;;5021291;28;20029;-90
2022/09/04 04:39:43;;;;;;;2.50;0.88;;;;;;;;;;5020592;28;20044;-90
2022/09/04 04:42:19;;;;;;;1.33;0.55;;;;;;;;;;5005511;28;20136;-90
2022/09/04 04:48:28;;;;;;;1.02;0.40;;;;;;;;;;5019739;28;20049;-90
2022/09/04 04:51:30;;;;;;;0.98;0.50;;;;;;;;;;5017324;28;20175;-89
2022/09/04 04:54:34;;;;;;;1.38;0.60;;;;;;;;;;5017078;28;20048;-90
2022/09/04 04:57:17;;;;;;;1.52;0.57;;;;;;;;;;5000860;28;20046;-90
2022/09/04 05:00:02;;;;;;;1.20;0.63;;;;;;;;;;5016921;28;20037;-89
2022/09/04 05:02:31;;;;;;;2.78;0.57;;;;;;;;;;5000971;28;20397;-90
2022/09/04 05:05:06;;;;;;;0.90;0.50;;;;;;;;;;5000846;28;20056;-89
2022/09/04 05:07:51;;;;;;;1.00;0.52;;;;;;;;;;5000412;28;20037;-89
2022/09/04 05:10:27;;;;;;;1.38;0.60;;;;;;;;;;5000725;28;20439;-90
2022/09/04 05:13:12;;;;;;;2.97;0.50;;;;;;;;;;5016462;28;20053;-89
2022/09/04 05:15:59;;;;;;;1.77;0.65;;;;;;;;;;5016828;28;20061;-90
2022/09/04 05:18:36;;;;;;;1.98;0.57;;;;;;;;;;5000425;28;20462;-90
2022/09/04 05:21:22;;;;;;;0.85;0.43;;;;;;;;;;5000220;28;20037;-89
2022/09/04 05:24:05;;;;;;;0.98;0.50;;;;;;;;;;5000047;28;20120;-89
2022/09/04 05:26:37;;;;;;;1.77;0.60;;;;;;;;;;5016765;28;20411;-89
2022/09/04 05:29:16;;;;;;;1.80;0.60;;;;;;;;;;5016757;28;20407;-90
2022/09/04 05:32:15;;;;;;;1.35;0.50;;;;;;;;;;5032380;28;20132;-92
2022/09/04 05:34:54;;;;;;;1.35;0.47;;;;;;;;;;5016507;28;20033;-92
2022/09/04 05:37:57;;;;;;;1.48;0.65;;;;;;;;;;5016679;28;20029;-92
2022/09/04 05:40:47;;;;;;;0.73;0.40;;;;;;;;;;5016380;28;20037;-91
2022/09/04 05:43:44;;;;;;;1.92;0.65;;;;;;;;;;5002112;28;20113;-92
2022/09/04 05:46:48;;;;;;;2.30;1.17;;;;;;;;;;5016691;28;20103;-92
2022/09/04 05:49:25;;;;;;;1.17;0.60;;;;;;;;;;4999371;28;20087;-92
2022/09/04 05:52:22;;;;;;;1.85;0.60;;;;;;;;;;5000834;28;20095;-92
2022/09/04 05:55:03;;;;;;;3.08;0.50;;;;;;;;;;5000865;28;20571;-82
2022/09/04 05:57:37;;;;;;;2.92;0.70;;;;;;;;;;5012846;28;20052;-85
2022/09/04 06:00:03;;;;;;;3.47;0.80;;;;;;;;;;5012840;28;20111;-81
2022/09/04 06:02:43;;;;;;;4.20;0.85;;;;;;;;;;5013151;28;20049;-81
2022/09/04 06:05:23;;;;;;;5.03;0.70;;;;;;;;;;5013788;28;20045;-81
2022/09/04 06:07:57;;;;;;;3.55;0.70;;;;;;;;;;4998962;28;20052;-81
2022/09/04 06:10:30;;;;;;;7.43;1.42;;;;;;;;;;4982394;28;20132;-81
2022/09/04 06:13:00;;;;;;;4.18;1.20;;;;;;;;;;5029160;28;20529;-84
2022/09/04 06:15:39;;;;;;;6.80;1.05;;;;;;;;;;5034366;28;20067;-85
2022/09/04 06:18:10;;;;;;;7.43;1.25;;;;;;;;;;5003131;28;20036;-84
2022/09/04 06:20:49;;;;;;;5.15;1.15;;;;;;;;;;5017877;28;20048;-86
2022/09/04 06:23:42;;;;;;;10.27;1.35;;;;;;;;;;5000415;28;20186;-84
2022/09/04 06:26:16;;;;;;;8.80;1.00;;;;;;;;;;5001369;28;20032;-87
2022/09/04 06:29:07;;;;;;;10.65;1.45;;;;;;;;;;5001205;28;20025;-86
2022/09/04 06:31:51;;;;;;;14.05;1.40;;;;;;;;;;5034310;28;20406;-86
2022/09/04 06:34:45;;;;;;;11.07;1.75;;;;;;;;;;5017580;28;20065;-86
2022/09/04 06:37:37;;;;;;;7.72;0.80;;;;;;;;;;5021024;28;20029;-88
2022/09/04 06:40:41;;;;;;;4.97;1.02;;;;;;;;;;5018533;28;20037;-88
2022/09/04 06:43:26;;;;;;;2.78;0.57;;;;;;;;;;4992447;28;20037;-89
2022/09/04 06:46:01;;;;;;;5.32;1.00;;;;;;;;;;5004177;28;20467;-89
2022/09/04 06:48:51;;;;;;;3.05;0.70;;;;;;;;;;5031515;28;20516;-90
2022/09/04 06:51:38;;;;;;;3.28;0.70;;;;;;;;;;5013823;28;20491;-87
2022/09/04 06:54:26;;;;;;;4.18;0.93;;;;;;;;;;5018726;28;20079;-87
2022/09/04 06:57:08;;;;;;;3.50;0.80;;;;;;;;;;5018141;28;20474;-89
2022/09/04 06:59:41;;;;;;;;;;;;;;;;;;5004426;28;20033;-88
2022/09/04 07:02:30;;;;;;;1.70;0.80;;;;;;;;;;5018597;28;20422;-88
2022/09/04 07:05:08;;;;;;;1.95;0.85;;;;;;;;;;5018387;28;20036;-88
2022/09/04 07:07:59;;;;;;;3.53;0.80;;;;;;;;;;5033928;28;20033;-88
2022/09/04 07:10:35;;;;;;;5.32;1.33;;;;;;;;;;5033953;28;20037;-88
2022/09/04 07:13:22;;;;;;;2.10;1.20;;;;;;;;;;4987187;28;20060;-88
2022/09/04 07:16:02;;;;;;;9.35;1.63;;;;;;;;;;5014626;28;20030;-87
2022/09/04 07:18:59;;;;;;;14.20;2.40;;;;;;;;;;4999072;28;20048;-88
2022/09/04 07:21:38;;;;;;;6.10;0.90;;;;;;;;;;4998398;28;20041;-88
2022/09/04 07:24:25;;;;;;;2.38;0.85;;;;;;;;;;4998617;28;20446;-89
2022/09/04 07:27:14;;;;;;;2.65;0.90;;;;;;;;;;5017470;28;20152;-88
2022/09/04 07:29:42;;;;;;;1.92;0.68;;;;;;;;;;5018265;28;20044;-88
2022/09/04 07:32:19;;;;;;;1.17;0.65;;;;;;;;;;5017881;28;20029;-89
2022/09/04 07:35:09;;;;;;;1.40;0.80;;;;;;;;;;5019323;28;20044;-88
2022/09/04 07:38:10;;;;;;;2.13;1.20;;;;;;;;;;5022199;28;20515;-89
2022/09/04 07:40:38;;;;;;;2.95;0.98;;;;;;;;;;5024048;28;20175;-89
2022/09/04 07:43:22;;;;;;;1.88;0.77;;;;;;;;;;5005475;28;20059;-83
2022/09/04 07:46:10;;;;;;;2.40;0.70;;;;;;;;;;5036706;28;20032;-83
2022/09/04 07:48:54;;;;;;;1.60;0.75;;;;;;;;;;5000060;28;20076;-82
2022/09/04 07:51:24;;;;;;;1.65;0.80;;;;;;;;;;5020348;28;20049;-82
2022/09/04 07:54:03;;;;;;;4.13;1.05;;;;;;;;;;4987956;28;20394;-83
2022/09/04 07:56:59;;;;;;;2.00;0.80;;;;;;;;;;5020538;28;20048;-83
2022/09/04 07:59:34;;;;;;;1.77;0.80;;;;;;;;;;5020160;28;20029;-83
2022/09/04 08:02:13;;;;;;;2.75;0.95;;;;;;;;;;5021965;28;20079;-84
2022/09/04 08:04:44;;;;;;;2.80;1.00;;;;;;;;;;5020506;28;20469;-85
2022/09/04 08:07:32;;;;;;;7.05;2.17;;;;;;;;;;5020148;28;20075;-85
2022/09/04 08:10:20;;;;;;;4.90;1.38;;;;;;;;;;5043108;28;20091;-84
2022/09/04 08:13:02;;;;;;;7.57;1.13;;;;;;;;;;5037551;28;20090;-84
2022/09/04 08:15:41;;;;;;;;;;;;;;;;;;5020448;28;20037;-84
2022/09/04 08:18:45;;;;;;;3.70;1.23;;;;;;;;;;5022113;28;19952;-83
2022/09/04 08:21:38;;;;;;;4.75;1.90;;;;;;;;;;5036523;28;20087;-82
2022/09/04 08:24:23;;;;;;;;;;;;;;;;;;5035978;28;20075;-83
2022/09/04 08:27:01;;;;;;;2.08;0.80;;;;;;;;;;5036453;28;19923;-83
2022/09/04 08:29:36;;;;;;;1.38;1.00;;;;;;;;;;5036303;28;20043;-83
2022/09/04 08:32:32;;;;;;;3.63;1.25;;;;;;;;;;5053081;28;20037;-83
2022/09/04 08:34:58;;;;;;;3.17;1.42;;;;;;;;;;5019433;28;20407;-83
2022/09/04 08:37:26;;;;;;;2.47;0.65;;;;;;;;;;5018947;28;20041;-83
2022/09/04 08:40:22;;;;;;;1.42;0.80;;;;;;;;;;5007722;28;20493;-83
2022/09/04 08:43:02;;;;;;;2.60;1.00;;;;;;;;;;5035154;28;20069;-82
2022/09/04 08:45:55;;;;;;;2.03;0.80;;;;;;;;;;5002350;28;20461;-82
2022/09/04 08:48:43;;;;;;;2.42;1.00;;;;;;;;;;5035236;28;20037;-83
2022/09/04 08:51:17;;;;;;;1.98;1.10;;;;;;;;;;5034646;28;20045;-84
2022/09/04 08:54:01;;;;;;;5.00;1.60;;;;;;;;;;5035135;28;20044;-83
2022/09/04 08:56:43;;;;;;;2.58;1.58;;;;;;;;;;5053045;28;20056;-82
2022/09/04 08:59:45;;;;;;;3.80;2.08;;;;;;;;;;5035995;28;20090;-81
2022/09/04 09:02:20;;;;;;;;;;;;;;;;;;5019383;28;20032;-83
2022/09/04 09:05:02;;;;;;;2.53;1.55;;;;;;;;;;5051627;28;19912;-83
2022/09/04 09:07:52;;;;;;;4.05;1.83;;;;;;;;;;5034532;28;20120;-83
2022/09/04 09:10:33;;;;;;;2.63;1.50;;;;;;;;;;5020402;28;20174;-83
2022/09/04 09:13:32;;;;;;;2.78;1.58;;;;;;;;;;4999329;28;20596;-82
2022/09/04 09:16:34;;;;;;;6.30;2.22;;;;;;;;;;4999057;28;20055;-82
2022/09/04 09:19:32;;;;;;;2.22;1.20;;;;;;;;;;5001969;28;20037;-82
2022/09/04 09:22:26;;;;;;;3.08;1.75;;;;;;;;;;5000882;28;20613;-82
2022/09/04 09:24:58;;;;;;;2.35;1.45;;;;;;;;;;5007349;28;20048;-82
2022/09/04 09:27:35;;;;;;;2.95;1.73;;;;;;;;;;5018110;28;20525;-82
2022/09/04 09:30:04;;;;;;;2.75;1.55;;;;;;;;;;5018697;28;20072;-82
2022/09/04 09:33:06;;;;;;;3.35;1.73;;;;;;;;;;5013935;28;20042;-83
2022/09/04 09:35:40;;;;;;;3.95;1.83;;;;;;;;;;5032792;28;20037;-83
2022/09/04 09:38:19;;;;;;;2.80;1.30;;;;;;;;;;4996939;28;20085;-82
2022/09/04 09:41:08;;;;;;;3.95;1.50;;;;;;;;;;4999581;28;20041;-83
2022/09/04 09:44:02;;;;;;;3.15;1.40;;;;;;;;;;5020726;28;20082;-82
2022/09/04 09:47:15;;;;;;;3.28;1.73;;;;;;;;;;5034584;28;20062;-82
2022/09/04 09:50:00;;;;;;;4.13;1.60;;;;;;;;;;5032075;28;20080;-82
2022/09/04 09:52:51;;;;;;;2.58;1.40;;;;;;;;;;5017779;28;20044;-82
2022/09/04 09:55:44;;;;;;;3.85;1.77;;;;;;;;;;5018040;28;20079;-82
2022/09/04 09:58:34;;;;;;;4.65;1.67;;;;;;;;;;5050669;28;20043;-81
2022/09/04 10:01:19;;;;;;;2.97;1.20;;;;;;;;;;5034062;28;20075;-81
2022/09/04 10:04:36;;;;;;;3.30;1.25;;;;;;;;;;5017174;28;20127;-83
2022/09/04 10:07:13;;;;;;;5.43;2.00;;;;;;;;;;5007319;28;20037;-82
2022/09/04 10:09:53;;;;;;;5.63;1.98;;;;;;;;;;5051262;28;20041;-83
2022/09/04 10:12:38;;;;;;;4.40;1.77;;;;;;;;;;5034210;28;20033;-83
2022/09/04 10:15:33;;;;;;;11.18;2.20;;;;;;;;;;5018612;28;20040;-84
2022/09/04 10:18:36;;;;;;;32.53;5.10;;;;;;;;;;5032681;28;20056;-86
2022/09/04 10:21:19;;;;;;;39.42;6.00;;;;;;;;;;5018218;28;20033;-86
2022/09/04 10:23:57;;;;;;;14.27;3.00;;;;;;;;;;5034059;28;20064;-84
2022/09/04 10:27:01;;;;;;;7.10;2.60;;;;;;;;;;5014409;28;20033;-84
2022/09/04 10:29:57;;;;;;;9.35;2.13;;;;;;;;;;4998175;28;20041;-86
2022/09/04 10:32:31;;;;;;;7.40;2.13;;;;;;;;;;4997925;28;20102;-85
2022/09/04 10:35:06;;;;;;;8.25;1.70;;;;;;;;;;5015081;28;20029;-86
2022/09/04 10:37:57;;;;;;;6.80;1.88;;;;;;;;;;4998204;28;20037;-85
2022/09/04 10:40:38;;;;;;;6.55;1.60;;;;;;;;;;5015920;28;20037;-87
2022/09/04 10:43:14;;;;;;;8.75;2.38;;;;;;;;;;5014436;28;20065;-87
2022/09/04 10:45:46;;;;;;;2.67;1.10;;;;;;;;;;5000361;28;20044;-86
2022/09/04 10:48:33;;;;;;;3.72;1.05;;;;;;;;;;5033405;28;20550;-87
2022/09/04 10:51:36;;;;;;;2.97;1.40;;;;;;;;;;5033469;28;20083;-87
2022/09/04 10:54:13;;;;;;;4.75;1.40;;;;;;;;;;5033752;28;20560;-87
2022/09/04 10:57:03;;;;;;;3.90;0.90;;;;;;;;;;5018184;28;20047;-86
2022/09/04 10:59:47;;;;;;;4.93;1.38;;;;;;;;;;5034296;28;20454;-86
2022/09/04 11:02:24;;;;;;;2.70;1.70;;;;;;;;;;5050572;28;20033;-87
2022/09/04 11:05:27;;;;;;;8.93;7.45;;;;;;;;;;5034196;28;20037;-87
2022/09/04 11:07:57;;;;;;;23.05;17.60;;;;;;;;;;5033926;28;20025;-87
2022/09/04 11:10:48;;;;;;;20.75;15.85;;;;;;;;;;5003855;28;20029;-87
2022/09/04 11:13:39;;;;;;;17.43;12.10;;;;;;;;;;5015216;28;20081;-87
2022/09/04 11:16:28;;;;;;;12.48;8.60;;;;;;;;;;5038255;28;20411;-86
2022/09/04 11:19:02;;;;;;;7.55;6.05;;;;;;;;;;5018481;28;20049;-87
2022/09/04 11:21:43;;;;;;;6.68;4.30;;;;;;;;;;5037882;28;20593;-87
2022/09/04 11:24:46;;;;;;;4.90;2.78;;;;;;;;;;5021071;28;20056;-86
2022/09/04 11:27:28;;;;;;;5.40;2.10;;;;;;;;;;5023824;28;20029;-87
2022/09/04 11:30:01;;;;;;;3.97;2.33;;;;;;;;;;5021408;28;20037;-87
2022/09/04 11:32:56;;;;;;;3.92;1.80;;;;;;;;;;5020650;28;20033;-87
2022/09/04 11:35:52;;;;;;;3.05;1.38;;;;;;;;;;5021468;28;20029;-87
2022/09/04 11:38:48;;;;;;;3.45;1.25;;;;;;;;;;5021853;28;20033;-87
2022/09/04 11:41:32;;;;;;;2.60;1.42;;;;;;;;;;5020768;28;20513;-86
2022/09/04 11:44:15;;;;;;;3.65;1.63;;;;;;;;;;5037740;28;20467;-85
2022/09/04 11:47:02;;;;;;;2.85;1.55;;;;;;;;;;5022206;28;20395;-87
2022/09/04 11:49:47;;;;;;;3.35;1.63;;;;;;;;;;5054141;28;20060;-86
2022/09/04 11:52:41;;;;;;;2.90;1.20;;;;;;;;;;5020902;28;20068;-87
2022/09/04 11:55:12;;;;;;;2.67;1.20;;;;;;;;;;5021081;28;20032;-87
2022/09/04 11:58:15;;;;;;;1.83;0.90;;;;;;;;;;5037446;28;20051;-87
2022/09/04 12:00:49;;;;;;;1.85;0.90;;;;;;;;;;5037108;28;20037;-86
2022/09/04 12:03:33;;;;;;;3.03;1.08;;;;;;;;;;5020608;28;20041;-86
2022/09/04 12:06:18;;;;;;;2.45;1.02;;;;;;;;;;5037370;28;20098;-86
2022/09/04 12:08:43;;;;;;;2.47;1.13;;;;;;;;;;5004540;28;20037;-87
2022/09/04 12:11:21;;;;;;;2.38;0.88;;;;;;;;;;5020374;28;20563;-87
2022/09/04 12:14:00;;;;;;;2.88;0.88;;;;;;;;;;5020531;28;20052;-87
2022/09/04 12:16:51;;;;;;;0.90;0.75;;;;;;;;;;5020843;28;20468;-87
2022/09/04 12:19:49;;;;;;;3.58;1.40;;;;;;;;;;5036539;28;20033;-86
2022/09/04 12:22:42;;;;;;;1.10;0.45;;;;;;;;;;5005943;28;20126;-86
2022/09/04 12:25:08;;;;;;;4.40;1.00;;;;;;;;;;5035506;28;20032;-86
2022/09/04 12:27:58;;;;;;;1.70;0.65;;;;;;;;;;5020342;28;20037;-87
2022/09/04 12:30:29;;;;;;;1.83;0.65;;;;;;;;;;5005811;28;20033;-86
2022/09/04 12:33:13;;;;;;;2.50;0.77;;;;;;;;;;5020102;28;20398;-86
2022/09/04 12:36:17;;;;;;;17.80;10.85;;;;;;;;;;5037125;28;20444;-86
2022/09/04 12:38:55;;;;;;;8.32;5.18;;;;;;;;;;4996595;28;20041;-86
2022/09/04 12:41:53;;;;;;;8.35;5.15;;;;;;;;;;5019618;28;20459;-86
2022/09/04 12:44:40;;;;;;;6.75;3.72;;;;;;;;;;5025549;28;20084;-86
2022/09/04 12:47:40;;;;;;;5.72;2.63;;;;;;;;;;5019883;28;20028;-86
2022/09/04 12:50:18;;;;;;;4.85;1.95;;;;;;;;;;5003638;28;20530;-86
2022/09/04 12:52:56;;;;;;;4.20;2.10;;;;;;;;;;5020687;28;20045;-86
2022/09/04 12:55:57;;;;;;;3.30;1.35;;;;;;;;;;5004839;28;20040;-86
2022/09/04 12:58:39;;;;;;;4.75;2.10;;;;;;;;;;4995871;28;20048;-86
2022/09/04 13:01:09;;;;;;;2.85;1.63;;;;;;;;;;5020462;28;20036;-86
2022/09/04 13:03:47;;;;;;;2.67;1.27;;;;;;;;;;5019032;28;20056;-86
2022/09/04 13:06:26;;;;;;;2.72;1.20;;;;;;;;;;5037018;28;20037;-86
2022/09/04 13:09:09;;;;;;;4.45;1.30;;;;;;;;;;5019340;28;20040;-86
2022/09/04 13:12:07;;;;;;;3.40;1.15;;;;;;;;;;5019472;28;20430;-86
2022/09/04 13:15:18;;;;;;;3.55;1.48;;;;;;;;;;5019241;28;20072;-87
2022/09/04 13:17:57;;;;;;;4.97;1.13;;;;;;;;;;4979148;28;20124;-86
2022/09/04 13:20:25;;;;;;;2.15;1.10;;;;;;;;;;4978564;28;20034;-86
2022/09/04 13:23:05;;;;;;;27.60;21.30;;;;;;;;;;5003019;28;20146;-86
2022/09/04 13:25:41;;;;;;;7.03;5.22;;;;;;;;;;5004142;28;20589;-86
2022/09/04 13:28:22;;;;;;;26.50;18.10;;;;;;;;;;5051873;28;20043;-86
2022/09/04 13:31:17;;;;;;;25.07;17.93;;;;;;;;;;5035548;28;20033;-86
2022/09/04 13:33:53;;;;;;;21.60;14.23;;;;;;;;;;5025517;28;20115;-86
2022/09/04 13:36:34;;;;;;;22.00;16.23;;;;;;;;;;5035266;28;20033;-87
2022/09/04 13:39:06;;;;;;;13.15;8.35;;;;;;;;;;5019070;28;20507;-86
2022/09/04 13:41:50;;;;;;;7.25;4.53;;;;;;;;;;5034531;28;20025;-86
2022/09/04 13:44:37;;;;;;;12.80;7.82;;;;;;;;;;5051741;28;20064;-87
2022/09/04 13:47:08;;;;;;;13.38;9.35;;;;;;;;;;5018152;28;20025;-87
2022/09/04 13:49:49;;;;;;;14.93;8.07;;;;;;;;;;5034893;28;20072;-85
2022/09/04 13:52:17;;;;;;;12.65;8.60;;;;;;;;;;5003633;28;20346;-86
2022/09/04 13:54:45;;;;;;;12.32;8.10;;;;;;;;;;5019015;28;20095;-86
2022/09/04 13:57:16;;;;;;;10.07;7.60;;;;;;;;;;5018202;28;20068;-86
2022/09/04 13:59:43;;;;;;;11.60;7.73;;;;;;;;;;5018609;28;20639;-86
2022/09/04 14:02:11;;;;;;;11.70;6.90;;;;;;;;;;5018256;28;20039;-86
2022/09/04 14:04:44;;;;;;;10.95;6.60;;;;;;;;;;5017777;28;20048;-87
2022/09/04 14:07:16;;;;;;;10.32;6.95;;;;;;;;;;5018090;28;20041;-87
2022/09/04 14:09:42;;;;;;;9.82;6.05;;;;;;;;;;5018218;28;20384;-86
2022/09/04 14:12:36;;;;;;;9.15;6.03;;;;;;;;;;5018236;28;20140;-86
2022/09/04 14:15:39;;;;;;;11.10;6.82;;;;;;;;;;5034663;28;20029;-86
2022/09/04 14:18:17;;;;;;;;;;;;;;;;;;5034966;28;20040;-87
2022/09/04 14:20:48;;;;;;;7.30;4.95;;;;;;;;;;5001499;28;19916;-86
2022/09/04 14:23:23;;;;;;;7.63;5.53;;;;;;;;;;5034395;28;20045;-86
2022/09/04 14:26:11;;;;;;;9.73;5.47;;;;;;;;;;5017881;28;20083;-86
2022/09/04 14:29:04;;;;;;;8.40;4.95;;;;;;;;;;5034113;28;20422;-86
2022/09/04 14:31:57;;;;;;;8.38;4.70;;;;;;;;;;5017680;28;20087;-86
2022/09/04 14:34:36;;;;;;;8.32;5.35;;;;;;;;;;5017345;28;20130;-86
2022/09/04 14:37:26;;;;;;;7.03;4.38;;;;;;;;;;5034123;28;20040;-86
2022/09/04 14:40:01;;;;;;;8.80;5.10;;;;;;;;;;5033223;28;20483;-86
2022/09/04 14:42:34;;;;;;;6.90;4.07;;;;;;;;;;5033880;28;20033;-87
2022/09/04 14:46:03;;;;;;;5.43;3.70;;;;;;;;;;5016897;28;20025;-86
2022/09/04 14:48:30;;;;;;;5.95;4.25;;;;;;;;;;4975018;28;20119;-85
2022/09/04 14:50:58;;;;;;;6.90;3.83;;;;;;;;;;5009357;28;20072;-86
2022/09/04 14:53:33;;;;;;;6.85;4.10;;;;;;;;;;5001486;28;20048;-86
2022/09/04 14:56:10;;;;;;;4.85;3.35;;;;;;;;;;5017534;28;20041;-86
2022/09/04 14:58:40;;;;;;;5.05;3.03;;;;;;;;;;5017380;28;20116;-87
2022/09/04 15:01:17;;;;;;;5.80;3.58;;;;;;;;;;5001680;28;20057;-86
2022/09/04 15:03:54;;;;;;;5.05;2.90;;;;;;;;;;4985796;28;20029;-86
2022/09/04 15:06:50;;;;;;;5.90;3.28;;;;;;;;;;5017408;28;20064;-86
2022/09/04 15:09:21;;;;;;;5.95;3.00;;;;;;;;;;5035394;28;20037;-86
2022/09/04 15:11:47;;;;;;;5.97;2.80;;;;;;;;;;5001926;28;20056;-86
2022/09/04 15:14:25;;;;;;;4.20;2.42;;;;;;;;;;4984975;28;20021;-86
2022/09/04 15:16:53;;;;;;;4.90;2.50;;;;;;;;;;5002483;28;20136;-86
2022/09/04 15:19:25;;;;;;;5.43;2.60;;;;;;;;;;4984973;28;20040;-86
2022/09/04 15:21:53;;;;;;;;;;;;;;;;;;5017853;28;20033;-86
2022/09/04 15:24:20;;;;;;;4.53;2.50;;;;;;;;;;5016751;28;19967;-86
2022/09/04 15:27:04;;;;;;;4.43;2.40;;;;;;;;;;5017676;28;20400;-86
2022/09/04 15:29:43;;;;;;;3.20;2.03;;;;;;;;;;5017194;28;20072;-86
2022/09/04 15:32:09;;;;;;;3.85;2.30;;;;;;;;;;5017286;28;20041;-86
2022/09/04 15:34:34;;;;;;;4.10;2.40;;;;;;;;;;5000426;28;20072;-87
2022/09/04 15:37:17;;;;;;;3.90;1.75;;;;;;;;;;5016973;28;20041;-86
2022/09/04 15:40:13;;;;;;;3.78;2.00;;;;;;;;;;5017080;28;20505;-86
2022/09/04 15:42:45;;;;;;;3.63;1.88;;;;;;;;;;5033526;28;20124;-86
2022/09/04 15:45:51;;;;;;;3.55;1.77;;;;;;;;;;5001027;28;20032;-86
2022/09/04 15:48:26;;;;;;;3.10;1.60;;;;;;;;;;4992935;28;20045;-86
2022/09/04 15:51:02;;;;;;;4.15;2.28;;;;;;;;;;5033025;28;20025;-87
2022/09/04 15:53:34;;;;;;;3.40;1.60;;;;;;;;;;5016823;28;20048;-87
2022/09/04 15:56:09;;;;;;;3.13;1.63;;;;;;;;;;5002559;28;20116;-87
2022/09/04 15:58:51;;;;;;;3.65;1.80;;;;;;;;;;5021087;28;20045;-86
2022/09/04 16:01:36;;;;;;;3.47;1.75;;;;;;;;;;5020777;28;20033;-87
2022/09/04 16:04:22;;;;;;;3.00;1.20;;;;;;;;;;5004687;28;20071;-86
2022/09/04 16:06:52;;;;;;;3.47;1.70;;;;;;;;;;5020468;28;20060;-87
2022/09/04 16:09:38;;;;;;;2.63;1.40;;;;;;;;;;5004708;28;20037;-86
2022/09/04 16:12:08;;;;;;;2.33;1.38;;;;;;;;;;5036913;28;20041;-86
2022/09/04 16:14:47;;;;;;;3.28;1.65;;;;;;;;;;5020524;28;20492;-87
2022/09/04 16:17:24;;;;;;;3.28;1.50;;;;;;;;;;5004435;28;20040;-87
2022/09/04 16:19:58;;;;;;;3.20;1.30;;;;;;;;;;5004003;28;20131;-86
2022/09/04 16:22:38;;;;;;;3.00;1.50;;;;;;;;;;5020234;28;20037;-87
2022/09/04 16:25:20;;;;;;;3.03;1.55;;;;;;;;;;5020510;28;20124;-87